createdAt,value
2023-04-07T00:04:31.153Z,65.28
2023-04-07T00:09:31.916Z,65.41
2023-04-07T00:14:33.819Z,66.15
2023-04-07T00:19:35.886Z,66.38
2023-04-07T00:24:36.596Z,66.56
2023-04-07T00:29:37.224Z,67.06
2023-04-07T00:34:39.130Z,67.37
2023-04-07T00:39:39.709Z,67.81
2023-04-07T00:44:40.414Z,68.05
2023-04-07T00:49:42.435Z,67.40
2023-04-07T00:54:43.707Z,68.19
2023-04-07T00:59:44.293Z,68.71
2023-04-07T01:04:52.598Z,68.53
2023-04-07T01:09:58.649Z,68.65
2023-04-07T01:15:05.657Z,68.47
2023-04-07T01:20:15.182Z,68.45
2023-04-07T01:25:30.438Z,69.08
2023-04-07T01:30:34.258Z,69.19
2023-04-07T01:35:36.849Z,69.29
2023-04-07T01:40:40.327Z,69.94
2023-04-07T01:45:43.514Z,69.95
2023-04-07T01:50:45.198Z,70.06
2023-04-07T01:55:46.524Z,70.10
2023-04-07T02:00:49.390Z,70.53
2023-04-07T02:06:02.455Z,70.42
2023-04-07T02:11:06.513Z,70.87
2023-04-07T02:16:11.902Z,70.91
2023-04-07T02:21:15.044Z,71.05
2023-04-07T02:26:19.043Z,71.48
2023-04-07T02:31:24.066Z,71.28
2023-04-07T02:36:24.743Z,71.81
2023-04-07T02:41:26.209Z,71.78
2023-04-07T02:46:28.157Z,72.48
2023-04-07T02:51:29.011Z,72.07
2023-04-07T02:56:29.946Z,72.15
2023-04-07T03:01:31.974Z,71.94
2023-04-07T03:06:33.418Z,72.49
2023-04-07T03:11:45.324Z,72.11
2023-04-07T03:16:47.405Z,72.13
2023-04-07T03:21:49.376Z,72.39
2023-04-07T03:26:51.258Z,72.34
2023-04-07T03:32:09.636Z,72.63
2023-04-07T03:37:10.295Z,72.87
2023-04-07T03:42:11.983Z,72.79
2023-04-07T03:47:14.153Z,72.74
2023-04-07T03:52:15.620Z,72.59
2023-04-07T03:57:20.821Z,72.98
2023-04-07T04:02:24.183Z,72.62
2023-04-07T04:07:27.330Z,73.09
2023-04-07T04:12:32.230Z,73.63
2023-04-07T04:17:41.530Z,73.75
2023-04-07T04:22:43.061Z,73.99
2023-04-07T04:27:45.715Z,73.85
2023-04-07T04:32:55.623Z,73.91
2023-04-07T04:38:05.939Z,73.13
2023-04-07T04:43:07.434Z,73.34
2023-04-07T04:48:12.106Z,73.58
2023-04-07T04:53:12.938Z,74.11
2023-04-07T04:58:21.774Z,73.97
2023-04-07T05:03:28.194Z,73.38
2023-04-07T05:08:32.631Z,73.67
2023-04-07T05:13:34.710Z,73.45
2023-04-07T05:18:38.972Z,73.69
2023-04-07T05:23:40.094Z,73.72
2023-04-07T05:28:42.015Z,73.39
2023-04-07T05:33:50.832Z,72.25
2023-04-07T05:38:59.106Z,71.88
2023-04-07T05:44:00.868Z,71.72
2023-04-07T05:49:16.734Z,71.66
2023-04-07T05:54:24.891Z,70.87
2023-04-07T05:59:26.783Z,70.17
2023-04-07T06:04:28.997Z,70.18
2023-04-07T06:09:29.831Z,69.24
2023-04-07T06:14:30.732Z,69.34
2023-04-07T06:19:33.311Z,67.73
2023-04-07T06:24:34.765Z,66.90
2023-04-07T06:29:37.501Z,66.27
2023-04-07T06:34:41.764Z,66.03
2023-04-07T06:39:43.016Z,64.90
2023-04-07T06:44:43.644Z,64.29
2023-04-07T06:49:45.590Z,63.35
2023-04-07T06:54:46.204Z,62.99
2023-04-07T06:59:47.174Z,62.42
2023-04-07T07:04:49.137Z,61.05
2023-04-07T07:09:49.753Z,60.33
2023-04-07T07:14:50.317Z,59.71
2023-04-07T07:19:52.253Z,59.16
2023-04-07T07:24:56.419Z,58.11
2023-04-07T07:29:57.124Z,60.35
2023-04-07T07:34:59.699Z,57.78
2023-04-07T07:40:00.336Z,56.30
2023-04-07T07:45:01.223Z,55.06
2023-04-07T07:50:03.188Z,54.29
2023-04-07T07:55:03.922Z,51.18
2023-04-07T08:00:05.134Z,51.28
2023-04-07T08:05:15.504Z,51.76
2023-04-07T08:10:16.502Z,49.20
2023-04-07T08:15:17.082Z,47.38
2023-04-07T08:20:19.218Z,47.11
2023-04-07T08:25:20.903Z,47.04
2023-04-07T08:30:22.290Z,44.06
2023-04-07T08:35:24.414Z,43.05
2023-04-07T08:40:25.285Z,41.76
2023-04-07T08:45:27.366Z,41.29
2023-04-07T08:50:29.791Z,39.76
2023-04-07T08:55:30.398Z,39.41
2023-04-07T09:00:31.905Z,39.30
2023-04-07T09:05:34.472Z,39.12
2023-04-07T09:10:35.085Z,39.63
2023-04-07T09:15:38.010Z,37.57
2023-04-07T09:21:01.246Z,37.28
2023-04-07T09:26:20.228Z,36.79
2023-04-07T09:31:22.113Z,34.27
2023-04-07T09:36:27.038Z,37.62
2023-04-07T09:41:28.928Z,37.17
2023-04-07T09:46:29.687Z,37.81
2023-04-07T09:51:34.350Z,33.56
2023-04-07T09:56:35.690Z,32.64
2023-04-07T10:01:37.026Z,32.24
2023-04-07T10:06:40.118Z,32.21
2023-04-07T10:11:42.514Z,32.49
2023-04-07T10:16:43.458Z,33.29
2023-04-07T10:21:46.475Z,33.77
2023-04-07T10:26:53.072Z,34.01
2023-04-07T10:31:53.946Z,33.76
2023-04-07T10:42:48.500Z,32.03
2023-04-07T10:48:11.506Z,31.51
2023-04-07T10:53:13.399Z,31.64
2023-04-07T10:58:24.690Z,29.55
2023-04-07T11:03:26.581Z,29.91
2023-04-07T11:08:34.683Z,30.27
2023-04-07T11:13:42.824Z,29.56
2023-04-07T11:18:44.019Z,29.42
2023-04-07T11:23:46.182Z,29.47
2023-04-07T11:28:59.312Z,30.25
2023-04-07T11:34:01.735Z,31.75
2023-04-07T11:39:03.478Z,30.09
2023-04-07T11:44:10.760Z,32.75
2023-04-07T11:49:13.294Z,30.77
2023-04-07T11:54:14.236Z,31.75
2023-04-07T11:59:24.382Z,32.57
2023-04-07T12:04:25.086Z,31.35
2023-04-07T12:09:31.145Z,30.89
2023-04-07T12:14:33.724Z,30.62
2023-04-07T12:19:34.852Z,30.96
2023-04-07T12:24:35.510Z,31.10
2023-04-07T12:29:38.187Z,32.07
2023-04-07T12:34:39.406Z,30.60
2023-04-07T12:39:40.185Z,30.56
2023-04-07T12:44:42.101Z,30.98
2023-04-07T12:49:42.757Z,31.69
2023-04-07T12:54:44.460Z,31.58
2023-04-07T12:59:46.489Z,32.26
2023-04-07T13:04:47.747Z,31.83
2023-04-07T13:09:48.644Z,31.76
2023-04-07T13:14:59.815Z,32.50
2023-04-07T13:20:01.098Z,33.03
2023-04-07T13:25:02.252Z,32.17
2023-04-07T13:30:04.848Z,33.17
2023-04-07T13:35:06.329Z,33.93
2023-04-07T13:40:08.537Z,33.78
2023-04-07T13:45:10.927Z,33.76
2023-04-07T13:50:11.652Z,32.81
2023-04-07T13:55:12.298Z,34.80
2023-04-07T14:00:15.552Z,34.92
2023-04-07T14:05:16.311Z,36.44
2023-04-07T14:10:17.033Z,37.44
2023-04-07T14:15:18.926Z,36.36
2023-04-07T14:20:19.705Z,36.20
2023-04-07T14:25:20.687Z,36.38
2023-04-07T14:30:22.858Z,34.75
2023-04-07T14:35:23.723Z,35.15
2023-04-07T14:40:24.342Z,35.37
2023-04-07T14:45:26.359Z,36.02
2023-04-07T14:50:27.332Z,36.96
2023-04-07T14:55:28.061Z,37.11
2023-04-07T15:00:30.011Z,38.40
2023-04-07T15:05:30.856Z,37.91
2023-04-07T15:10:35.396Z,37.83
2023-04-07T15:15:37.323Z,38.37
2023-04-07T15:20:37.936Z,38.87
2023-04-07T15:25:38.506Z,39.13
2023-04-07T15:30:40.450Z,39.30
2023-04-07T15:35:43.500Z,39.63
2023-04-07T15:40:44.105Z,40.31
2023-04-07T15:45:46.097Z,39.62
2023-04-07T15:50:46.712Z,41.24
2023-04-07T15:55:47.382Z,41.71
2023-04-07T16:00:49.515Z,42.52
2023-04-07T16:05:51.204Z,42.76
2023-04-07T16:10:51.862Z,43.26
2023-04-07T16:15:58.451Z,44.85
2023-04-07T16:20:59.215Z,45.40
2023-04-07T16:25:59.858Z,46.37
2023-04-07T16:31:02.972Z,47.38
2023-04-07T16:36:03.601Z,47.90
2023-04-07T16:41:04.952Z,48.31
2023-04-07T16:46:07.263Z,48.75
2023-04-07T16:51:08.044Z,47.91
2023-04-07T16:56:16.300Z,51.44
2023-04-07T17:01:18.396Z,48.12
2023-04-07T17:06:19.045Z,57.72
2023-04-07T17:11:19.662Z,48.93
2023-04-07T17:16:21.806Z,50.05
2023-04-07T17:21:22.457Z,50.59
2023-04-07T17:26:24.256Z,52.24
2023-04-07T17:31:26.295Z,52.02
2023-04-07T17:36:27.709Z,53.11
2023-04-07T17:41:29.143Z,53.55
2023-04-07T17:46:31.174Z,54.15
2023-04-07T17:51:32.766Z,54.47
2023-04-07T17:56:33.552Z,55.11
2023-04-07T18:01:35.531Z,55.35
2023-04-07T18:06:37.189Z,56.80
2023-04-07T18:11:37.878Z,58.00
2023-04-07T18:16:40.414Z,59.11
2023-04-07T18:21:41.059Z,59.68
2023-04-07T18:26:43.745Z,59.89
2023-04-07T18:31:45.872Z,62.57
2023-04-07T18:36:47.660Z,62.59
2023-04-07T18:41:48.589Z,64.19
2023-04-07T18:46:50.597Z,66.24
2023-04-07T18:51:52.177Z,67.68
2023-04-07T18:56:53.500Z,69.87
2023-04-07T19:01:56.648Z,71.76
2023-04-07T19:06:57.583Z,73.01
2023-04-07T19:11:58.279Z,75.32
2023-04-07T19:17:00.382Z,75.89
2023-04-07T19:22:01.038Z,76.81
2023-04-07T19:27:02.083Z,76.24
2023-04-07T19:32:04.651Z,77.56
2023-04-07T19:37:05.407Z,77.85
2023-04-07T19:42:05.991Z,77.55
2023-04-07T19:47:08.204Z,78.31
2023-04-07T19:52:08.780Z,79.59
2023-04-07T19:57:09.522Z,79.19
2023-04-07T20:02:11.506Z,79.85
2023-04-07T20:07:12.180Z,79.62
2023-04-07T20:12:12.744Z,80.95
2023-04-07T20:17:14.757Z,80.36
2023-04-07T20:22:15.566Z,80.05
2023-04-07T20:27:16.262Z,79.38
2023-04-07T20:32:19.267Z,79.41
2023-04-07T20:37:20.570Z,79.46
2023-04-07T20:42:21.203Z,79.35
2023-04-07T20:47:23.648Z,79.53
2023-04-07T20:52:25.238Z,79.69
2023-04-07T20:57:26.676Z,79.47
2023-04-07T21:02:29.106Z,80.14
2023-04-07T21:07:29.829Z,80.58
2023-04-07T21:12:30.677Z,81.17
2023-04-07T21:17:32.610Z,80.82
2023-04-07T21:22:33.228Z,81.83
2023-04-07T21:27:33.906Z,83.29
2023-04-07T21:32:36.586Z,83.09
2023-04-07T21:37:37.260Z,83.11
2023-04-07T21:42:37.916Z,83.89
2023-04-07T21:47:39.864Z,84.16
2023-04-07T21:52:41.202Z,84.46
2023-04-07T21:57:41.873Z,84.52
2023-04-07T22:02:45.157Z,84.53
2023-04-07T22:07:46.798Z,85.03
2023-04-07T22:12:47.408Z,85.23
2023-04-07T22:17:49.750Z,86.04
2023-04-07T22:22:50.621Z,86.30
2023-04-07T22:27:52.313Z,86.27
2023-04-07T22:32:54.287Z,86.44
2023-04-07T22:37:54.900Z,86.83
2023-04-07T22:42:55.591Z,87.22
2023-04-07T22:47:57.551Z,87.26
2023-04-07T22:52:59.196Z,87.26
2023-04-07T22:57:59.778Z,87.35
2023-04-07T23:03:01.866Z,87.92
2023-04-07T23:08:02.577Z,88.13
2023-04-07T23:13:03.167Z,88.06
2023-04-07T23:18:05.089Z,87.83
2023-04-07T23:23:05.786Z,88.79
2023-04-07T23:28:06.377Z,88.52
2023-04-07T23:33:08.276Z,88.33
2023-04-07T23:38:10.897Z,88.69
2023-04-07T23:43:11.728Z,89.01
2023-04-07T23:48:13.636Z,88.77
2023-04-07T23:53:14.299Z,89.09
2023-04-07T23:58:14.883Z,89.22
